sensor_id;sensor_type;location;lat;lon;timestamp;pressure;altitude;pressure_sealevel;temperature;humidity
6345;BME280;3205;42.666;23.264;2023-06-14T00:00:20;93982.66;;;18.13;100.00
6345;BME280;3205;42.666;23.264;2023-06-14T00:02:46;93986.78;;;18.38;100.00
6345;BME280;3205;42.666;23.264;2023-06-14T00:05:14;93986.06;;;18.34;100.00
6345;BME280;3205;42.666;23.264;2023-06-14T00:07:41;93977.69;;;18.22;100.00
6345;BME280;3205;42.666;23.264;2023-06-14T00:10:09;93973.88;;;18.19;100.00
6345;BME280;3205;42.666;23.264;2023-06-14T00:12:36;93972.75;;;18.13;100.00
6345;BME280;3205;42.666;23.264;2023-06-14T00:15:03;93972.72;;;18.17;100.00
6345;BME280;3205;42.666;23.264;2023-06-14T00:17:29;93971.19;;;18.19;100.00
6345;BME280;3205;42.666;23.264;2023-06-14T00:19:56;93971.56;;;18.18;100.00
6345;BME280;3205;42.666;23.264;2023-06-14T00:22:23;93967.41;;;18.10;100.00
6345;BME280;3205;42.666;23.264;2023-06-14T00:24:50;93971.19;;;18.19;100.00
6345;BME280;3205;42.666;23.264;2023-06-14T00:27:16;93973.09;;;18.19;100.00
6345;BME280;3205;42.666;23.264;2023-06-14T00:29:43;93971.94;;;18.16;100.00
6345;BME280;3205;42.666;23.264;2023-06-14T00:32:09;93962.41;;;18.15;100.00
6345;BME280;3205;42.666;23.264;2023-06-14T00:34:35;93971.97;;;18.09;100.00
6345;BME280;3205;42.666;23.264;2023-06-14T00:37:02;93965.50;;;18.03;100.00
6345;BME280;3205;42.666;23.264;2023-06-14T00:39:28;93972.41;;;18.04;100.00
6345;BME280;3205;42.666;23.264;2023-06-14T00:41:54;93967.44;;;18.06;100.00
6345;BME280;3205;42.666;23.264;2023-06-14T00:44:21;93964.34;;;18.11;100.00
6345;BME280;3205;42.666;23.264;2023-06-14T00:46:47;93959.00;;;18.11;100.00
6345;BME280;3205;42.666;23.264;2023-06-14T00:49:14;93961.28;;;18.09;100.00
6345;BME280;3205;42.666;23.264;2023-06-14T00:51:41;93957.09;;;18.05;100.00
6345;BME280;3205;42.666;23.264;2023-06-14T00:54:07;93955.56;;;18.07;100.00
6345;BME280;3205;42.666;23.264;2023-06-14T00:56:35;93950.19;;;18.07;100.00
6345;BME280;3205;42.666;23.264;2023-06-14T00:59:02;93960.50;;;18.19;100.00
6345;BME280;3205;42.666;23.264;2023-06-14T01:01:30;93954.34;;;18.19;100.00
6345;BME280;3205;42.666;23.264;2023-06-14T01:03:58;93957.44;;;18.21;100.00
6345;BME280;3205;42.666;23.264;2023-06-14T01:06:33;93950.94;;;18.15;100.00
6345;BME280;3205;42.666;23.264;2023-06-14T01:09:09;93959.41;;;18.06;100.00
6345;BME280;3205;42.666;23.264;2023-06-14T01:11:48;93954.09;;;17.99;100.00
6345;BME280;3205;42.666;23.264;2023-06-14T01:14:17;93954.06;;;18.03;100.00
6345;BME280;3205;42.666;23.264;2023-06-14T01:16:44;93960.16;;;18.03;100.00
6345;BME280;3205;42.666;23.264;2023-06-14T01:19:12;93953.66;;;18.04;100.00
6345;BME280;3205;42.666;23.264;2023-06-14T01:21:39;93950.59;;;18.06;100.00
6345;BME280;3205;42.666;23.264;2023-06-14T01:24:08;93946.78;;;18.03;100.00
6345;BME280;3205;42.666;23.264;2023-06-14T01:26:34;93943.75;;;18.01;100.00
6345;BME280;3205;42.666;23.264;2023-06-14T01:29:03;93951.75;;;18.05;100.00
6345;BME280;3205;42.666;23.264;2023-06-14T01:31:30;93949.06;;;18.08;100.00
6345;BME280;3205;42.666;23.264;2023-06-14T01:34:06;93942.13;;;18.18;100.00
6345;BME280;3205;42.666;23.264;2023-06-14T01:36:34;93947.16;;;18.12;100.00
6345;BME280;3205;42.666;23.264;2023-06-14T01:39:04;93941.47;;;17.96;100.00
6345;BME280;3205;42.666;23.264;2023-06-14T01:41:31;93953.69;;;18.01;100.00
6345;BME280;3205;42.666;23.264;2023-06-14T01:43:58;93959.78;;;18.01;100.00
6345;BME280;3205;42.666;23.264;2023-06-14T01:46:25;93955.22;;;18.02;100.00
6345;BME280;3205;42.666;23.264;2023-06-14T01:48:52;93950.22;;;18.00;100.00
6345;BME280;3205;42.666;23.264;2023-06-14T01:51:18;93954.41;;;18.08;100.00
6345;BME280;3205;42.666;23.264;2023-06-14T01:53:44;93958.63;;;18.06;100.00
6345;BME280;3205;42.666;23.264;2023-06-14T01:56:10;93959.41;;;18.06;100.00
6345;BME280;3205;42.666;23.264;2023-06-14T01:58:38;93962.09;;;18.03;100.00
6345;BME280;3205;42.666;23.264;2023-06-14T02:01:05;93973.53;;;18.07;100.00
6345;BME280;3205;42.666;23.264;2023-06-14T02:03:32;93971.28;;;17.98;100.00
6345;BME280;3205;42.666;23.264;2023-06-14T02:05:58;93967.81;;;18.01;100.00
6345;BME280;3205;42.666;23.264;2023-06-14T02:08:24;93972.81;;;17.92;100.00
6345;BME280;3205;42.666;23.264;2023-06-14T02:10:51;93973.56;;;17.93;100.00
6345;BME280;3205;42.666;23.264;2023-06-14T02:13:17;93976.25;;;17.89;100.00
6345;BME280;3205;42.666;23.264;2023-06-14T02:15:44;93976.66;;;17.91;100.00
6345;BME280;3205;42.666;23.264;2023-06-14T02:18:11;93981.59;;;17.93;100.00
6345;BME280;3205;42.666;23.264;2023-06-14T02:20:38;93983.50;;;17.96;100.00
6345;BME280;3205;42.666;23.264;2023-06-14T02:23:04;93989.19;;;18.08;100.00
6345;BME280;3205;42.666;23.264;2023-06-14T02:25:30;93985.34;;;18.16;100.00
6345;BME280;3205;42.666;23.264;2023-06-14T02:27:56;93985.78;;;18.01;100.00
6345;BME280;3205;42.666;23.264;2023-06-14T02:30:23;93985.81;;;17.94;100.00
6345;BME280;3205;42.666;23.264;2023-06-14T02:32:49;93988.09;;;17.88;100.00
6345;BME280;3205;42.666;23.264;2023-06-14T02:35:16;93978.94;;;17.93;100.00
6345;BME280;3205;42.666;23.264;2023-06-14T02:37:43;93984.28;;;17.93;100.00
6345;BME280;3205;42.666;23.264;2023-06-14T02:40:10;93988.88;;;17.89;100.00
6345;BME280;3205;42.666;23.264;2023-06-14T02:42:36;93980.88;;;17.79;100.00
6345;BME280;3205;42.666;23.264;2023-06-14T02:45:03;93975.91;;;17.77;100.00
6345;BME280;3205;42.666;23.264;2023-06-14T02:47:29;93984.72;;;17.71;100.00
6345;BME280;3205;42.666;23.264;2023-06-14T02:49:56;93984.72;;;17.71;100.00
6345;BME280;3205;42.666;23.264;2023-06-14T02:52:22;93983.59;;;17.72;100.00
6345;BME280;3205;42.666;23.264;2023-06-14T02:54:50;93987.78;;;17.73;100.00
6345;BME280;3205;42.666;23.264;2023-06-14T02:57:16;93988.53;;;17.70;100.00
6345;BME280;3205;42.666;23.264;2023-06-14T02:59:42;93978.91;;;17.96;100.00
6345;BME280;3205;42.666;23.264;2023-06-14T03:02:08;93983.13;;;17.90;100.00
6345;BME280;3205;42.666;23.264;2023-06-14T03:04:35;93991.16;;;17.87;100.00
6345;BME280;3205;42.666;23.264;2023-06-14T03:07:04;94003.81;;;17.83;100.00
6345;BME280;3205;42.666;23.264;2023-06-14T03:09:35;94001.13;;;17.83;100.00
6345;BME280;3205;42.666;23.264;2023-06-14T03:12:02;94008.75;;;17.85;100.00
6345;BME280;3205;42.666;23.264;2023-06-14T03:14:28;94008.75;;;17.85;100.00
6345;BME280;3205;42.666;23.264;2023-06-14T03:16:54;94016.38;;;17.86;100.00
6345;BME280;3205;42.666;23.264;2023-06-14T03:19:22;94006.84;;;17.82;100.00
6345;BME280;3205;42.666;23.264;2023-06-14T03:21:48;94009.53;;;17.75;100.00
6345;BME280;3205;42.666;23.264;2023-06-14T03:24:15;94012.56;;;17.84;100.00
6345;BME280;3205;42.666;23.264;2023-06-14T03:26:42;94003.00;;;17.89;100.00
6345;BME280;3205;42.666;23.264;2023-06-14T03:29:09;94010.22;;;18.03;100.00
6345;BME280;3205;42.666;23.264;2023-06-14T03:31:35;94021.25;;;18.19;100.00
6345;BME280;3205;42.666;23.264;2023-06-14T03:34:01;94023.16;;;18.32;100.00
6345;BME280;3205;42.666;23.264;2023-06-14T03:36:28;94040.00;;;18.05;100.00
6345;BME280;3205;42.666;23.264;2023-06-14T03:38:54;94027.00;;;18.10;100.00
6345;BME280;3205;42.666;23.264;2023-06-14T03:41:21;94023.16;;;18.18;100.00
6345;BME280;3205;42.666;23.264;2023-06-14T03:43:47;94021.63;;;18.17;100.00
6345;BME280;3205;42.666;23.264;2023-06-14T03:46:13;94018.81;;;18.56;100.00
6345;BME280;3205;42.666;23.264;2023-06-14T03:48:39;94020.44;;;18.39;100.00
6345;BME280;3205;42.666;23.264;2023-06-14T03:51:05;94020.47;;;18.32;100.00
6345;BME280;3205;42.666;23.264;2023-06-14T03:53:31;94020.06;;;18.34;100.00
6345;BME280;3205;42.666;23.264;2023-06-14T03:55:58;94025.03;;;18.35;100.00
6345;BME280;3205;42.666;23.264;2023-06-14T03:58:26;94034.94;;;18.45;100.00
6345;BME280;3205;42.666;23.264;2023-06-14T04:00:52;94035.31;;;18.51;100.00
6345;BME280;3205;42.666;23.264;2023-06-14T04:03:18;94030.00;;;18.40;100.00
6345;BME280;3205;42.666;23.264;2023-06-14T04:05:45;94047.19;;;18.39;100.00
6345;BME280;3205;42.666;23.264;2023-06-14T04:08:14;94041.47;;;18.34;100.00
6345;BME280;3205;42.666;23.264;2023-06-14T04:10:41;94039.22;;;18.25;100.00
6345;BME280;3205;42.666;23.264;2023-06-14T04:13:07;94032.72;;;18.26;100.00
6345;BME280;3205;42.666;23.264;2023-06-14T04:15:34;94033.44;;;18.34;100.00
6345;BME280;3205;42.666;23.264;2023-06-14T04:18:01;94038.72;;;18.51;100.00
6345;BME280;3205;42.666;23.264;2023-06-14T04:20:27;94047.31;;;18.90;100.00
6345;BME280;3205;42.666;23.264;2023-06-14T04:22:56;94051.44;;;19.01;100.00
6345;BME280;3205;42.666;23.264;2023-06-14T04:25:22;94050.16;;;19.27;100.00
6345;BME280;3205;42.666;23.264;2023-06-14T04:27:50;94063.28;;;19.61;100.00
6345;BME280;3205;42.666;23.264;2023-06-14T04:30:17;94065.00;;;20.55;100.00
6345;BME280;3205;42.666;23.264;2023-06-14T04:32:44;94081.22;;;21.64;100.00
6345;BME280;3205;42.666;23.264;2023-06-14T04:35:11;94116.03;;;22.43;100.00
6345;BME280;3205;42.666;23.264;2023-06-14T04:37:37;94123.63;;;23.25;100.00
6345;BME280;3205;42.666;23.264;2023-06-14T04:40:07;94140.94;;;23.79;100.00
6345;BME280;3205;42.666;23.264;2023-06-14T04:42:34;94148.94;;;25.19;100.00
6345;BME280;3205;42.666;23.264;2023-06-14T04:45:02;94153.94;;;25.33;100.00
6345;BME280;3205;42.666;23.264;2023-06-14T04:47:29;94161.97;;;26.82;100.00
6345;BME280;3205;42.666;23.264;2023-06-14T04:49:57;94156.00;;;29.04;100.00
6345;BME280;3205;42.666;23.264;2023-06-14T04:52:23;94162.59;;;30.39;100.00
6345;BME280;3205;42.666;23.264;2023-06-14T04:54:52;94176.09;;;31.79;100.00
6345;BME280;3205;42.666;23.264;2023-06-14T04:57:19;94170.63;;;32.97;90.35
6345;BME280;3205;42.666;23.264;2023-06-14T04:59:47;94176.41;;;32.99;86.18
6345;BME280;3205;42.666;23.264;2023-06-14T05:02:14;94185.47;;;32.36;92.82
6345;BME280;3205;42.666;23.264;2023-06-14T05:04:40;94182.56;;;31.01;100.00
6345;BME280;3205;42.666;23.264;2023-06-14T05:07:07;94186.00;;;29.81;100.00
6345;BME280;3205;42.666;23.264;2023-06-14T05:09:34;94182.91;;;30.38;100.00
6345;BME280;3205;42.666;23.264;2023-06-14T05:12:00;94181.22;;;30.50;100.00
6345;BME280;3205;42.666;23.264;2023-06-14T05:14:26;94190.78;;;28.91;100.00
6345;BME280;3205;42.666;23.264;2023-06-14T05:16:52;94188.16;;;27.82;100.00
6345;BME280;3205;42.666;23.264;2023-06-14T05:19:18;94194.72;;;28.33;100.00
6345;BME280;3205;42.666;23.264;2023-06-14T05:21:46;94195.84;;;30.29;100.00
6345;BME280;3205;42.666;23.264;2023-06-14T05:24:13;94204.00;;;32.95;89.73
6345;BME280;3205;42.666;23.264;2023-06-14T05:26:40;94208.31;;;34.79;79.00
6345;BME280;3205;42.666;23.264;2023-06-14T05:29:06;94213.53;;;36.10;70.23
6345;BME280;3205;42.666;23.264;2023-06-14T05:31:32;94212.28;;;34.47;69.65
6345;BME280;3205;42.666;23.264;2023-06-14T05:33:58;94217.16;;;32.42;87.60
6345;BME280;3205;42.666;23.264;2023-06-14T05:36:25;94213.47;;;31.07;100.00
6345;BME280;3205;42.666;23.264;2023-06-14T05:38:53;94219.72;;;30.02;100.00
6345;BME280;3205;42.666;23.264;2023-06-14T05:41:24;94210.69;;;28.70;100.00
6345;BME280;3205;42.666;23.264;2023-06-14T05:43:50;94210.22;;;28.72;100.00
6345;BME280;3205;42.666;23.264;2023-06-14T05:46:16;94211.13;;;28.69;100.00
6345;BME280;3205;42.666;23.264;2023-06-14T05:48:47;94209.25;;;27.57;100.00
6345;BME280;3205;42.666;23.264;2023-06-14T05:51:13;94226.84;;;27.22;100.00
6345;BME280;3205;42.666;23.264;2023-06-14T05:53:40;94217.91;;;26.42;100.00
6345;BME280;3205;42.666;23.264;2023-06-14T05:56:06;94214.66;;;25.97;100.00
6345;BME280;3205;42.666;23.264;2023-06-14T05:58:33;94214.91;;;25.49;100.00
6345;BME280;3205;42.666;23.264;2023-06-14T06:00:59;94212.56;;;24.79;100.00
6345;BME280;3205;42.666;23.264;2023-06-14T06:03:25;94223.53;;;23.93;100.00
6345;BME280;3205;42.666;23.264;2023-06-14T06:05:54;94229.00;;;23.34;100.00
6345;BME280;3205;42.666;23.264;2023-06-14T06:08:20;94218.84;;;23.22;100.00
6345;BME280;3205;42.666;23.264;2023-06-14T06:10:46;94220.72;;;22.83;100.00
6345;BME280;3205;42.666;23.264;2023-06-14T06:13:13;94217.13;;;22.70;100.00
6345;BME280;3205;42.666;23.264;2023-06-14T06:15:39;94221.09;;;22.62;100.00
6345;BME280;3205;42.666;23.264;2023-06-14T06:18:05;94220.34;;;22.62;100.00
6345;BME280;3205;42.666;23.264;2023-06-14T06:20:32;94225.69;;;22.65;100.00
6345;BME280;3205;42.666;23.264;2023-06-14T06:22:59;94221.81;;;22.43;100.00
6345;BME280;3205;42.666;23.264;2023-06-14T06:25:25;94224.69;;;22.33;100.00
6345;BME280;3205;42.666;23.264;2023-06-14T06:27:53;94227.09;;;22.28;100.00
6345;BME280;3205;42.666;23.264;2023-06-14T06:30:19;94226.31;;;22.01;100.00
6345;BME280;3205;42.666;23.264;2023-06-14T06:32:46;94222.19;;;21.96;100.00
6345;BME280;3205;42.666;23.264;2023-06-14T06:35:13;94222.88;;;22.00;100.00
6345;BME280;3205;42.666;23.264;2023-06-14T06:37:39;94221.97;;;22.10;100.00
6345;BME280;3205;42.666;23.264;2023-06-14T06:40:06;94225.53;;;22.04;100.00
6345;BME280;3205;42.666;23.264;2023-06-14T06:42:33;94222.78;;;22.07;100.00
6345;BME280;3205;42.666;23.264;2023-06-14T06:44:59;94223.09;;;22.36;100.00
6345;BME280;3205;42.666;23.264;2023-06-14T06:47:25;94218.84;;;23.03;100.00
6345;BME280;3205;42.666;23.264;2023-06-14T06:49:52;94226.22;;;25.04;100.00
6345;BME280;3205;42.666;23.264;2023-06-14T06:52:18;94238.41;;;28.08;100.00
6345;BME280;3205;42.666;23.264;2023-06-14T06:54:44;94249.28;;;28.39;100.00
6345;BME280;3205;42.666;23.264;2023-06-14T06:57:11;94243.25;;;27.40;100.00
6345;BME280;3205;42.666;23.264;2023-06-14T06:59:37;94244.63;;;27.23;100.00
6345;BME280;3205;42.666;23.264;2023-06-14T07:02:03;94235.03;;;26.64;100.00
6345;BME280;3205;42.666;23.264;2023-06-14T07:04:30;94237.00;;;26.26;100.00
6345;BME280;3205;42.666;23.264;2023-06-14T07:06:57;94240.38;;;26.55;100.00
6345;BME280;3205;42.666;23.264;2023-06-14T07:09:23;94247.91;;;27.18;100.00
6345;BME280;3205;42.666;23.264;2023-06-14T07:11:50;94243.38;;;27.58;100.00
6345;BME280;3205;42.666;23.264;2023-06-14T07:14:16;94244.78;;;27.41;100.00
6345;BME280;3205;42.666;23.264;2023-06-14T07:16:42;94238.94;;;27.09;100.00
6345;BME280;3205;42.666;23.264;2023-06-14T07:19:08;94238.94;;;26.97;100.00
6345;BME280;3205;42.666;23.264;2023-06-14T07:21:35;94232.16;;;26.80;100.00
6345;BME280;3205;42.666;23.264;2023-06-14T07:24:04;94234.06;;;26.58;100.00
6345;BME280;3205;42.666;23.264;2023-06-14T07:26:31;94232.13;;;26.09;100.00
6345;BME280;3205;42.666;23.264;2023-06-14T07:28:58;94234.94;;;25.40;100.00
6345;BME280;3205;42.666;23.264;2023-06-14T07:31:24;94231.28;;;25.02;100.00
6345;BME280;3205;42.666;23.264;2023-06-14T07:33:50;94226.84;;;24.95;100.00
6345;BME280;3205;42.666;23.264;2023-06-14T07:36:16;94226.88;;;25.08;100.00
6345;BME280;3205;42.666;23.264;2023-06-14T07:38:43;94230.50;;;25.17;100.00
6345;BME280;3205;42.666;23.264;2023-06-14T07:41:10;94236.78;;;25.14;100.00
6345;BME280;3205;42.666;23.264;2023-06-14T07:43:36;94230.41;;;25.21;100.00
6345;BME280;3205;42.666;23.264;2023-06-14T07:46:02;94225.97;;;25.55;100.00
6345;BME280;3205;42.666;23.264;2023-06-14T07:48:28;94237.50;;;25.84;100.00
6345;BME280;3205;42.666;23.264;2023-06-14T07:50:54;94235.25;;;26.20;100.00
6345;BME280;3205;42.666;23.264;2023-06-14T07:53:21;94244.91;;;26.45;100.00
6345;BME280;3205;42.666;23.264;2023-06-14T07:55:47;94243.09;;;26.55;100.00
6345;BME280;3205;42.666;23.264;2023-06-14T07:58:14;94241.25;;;26.98;100.00
6345;BME280;3205;42.666;23.264;2023-06-14T08:00:41;94254.13;;;27.83;100.00
6345;BME280;3205;42.666;23.264;2023-06-14T08:03:07;94238.31;;;28.69;100.00
6345;BME280;3205;42.666;23.264;2023-06-14T08:05:33;94243.59;;;29.38;100.00
6345;BME280;3205;42.666;23.264;2023-06-14T08:08:00;94257.81;;;29.51;100.00
6345;BME280;3205;42.666;23.264;2023-06-14T08:10:26;94267.34;;;29.56;100.00
6345;BME280;3205;42.666;23.264;2023-06-14T08:12:52;94268.88;;;29.39;100.00
6345;BME280;3205;42.666;23.264;2023-06-14T08:15:19;94271.72;;;29.27;100.00
6345;BME280;3205;42.666;23.264;2023-06-14T08:17:46;94263.25;;;29.16;100.00
6345;BME280;3205;42.666;23.264;2023-06-14T08:20:13;94267.75;;;29.10;100.00
6345;BME280;3205;42.666;23.264;2023-06-14T08:22:39;94272.56;;;28.97;100.00
6345;BME280;3205;42.666;23.264;2023-06-14T08:25:08;94266.84;;;28.95;100.00
6345;BME280;3205;42.666;23.264;2023-06-14T08:27:34;94270.63;;;31.34;100.00
6345;BME280;3205;42.666;23.264;2023-06-14T08:30:01;94269.41;;;33.67;87.07
6345;BME280;3205;42.666;23.264;2023-06-14T08:32:28;94273.50;;;34.84;76.74
6345;BME280;3205;42.666;23.264;2023-06-14T08:34:54;94273.75;;;34.86;69.09
6345;BME280;3205;42.666;23.264;2023-06-14T08:37:20;94274.88;;;34.07;72.54
6345;BME280;3205;42.666;23.264;2023-06-14T08:39:47;94277.31;;;33.40;77.83
6345;BME280;3205;42.666;23.264;2023-06-14T08:42:14;94269.91;;;33.46;82.30
6345;BME280;3205;42.666;23.264;2023-06-14T08:44:40;94269.66;;;34.71;72.48
6345;BME280;3205;42.666;23.264;2023-06-14T08:47:07;94265.00;;;35.82;62.95
6345;BME280;3205;42.666;23.264;2023-06-14T08:49:36;94270.25;;;35.16;61.65
6345;BME280;3205;42.666;23.264;2023-06-14T08:52:05;94257.31;;;34.55;72.29
6345;BME280;3205;42.666;23.264;2023-06-14T08:54:36;94257.44;;;33.90;71.13
6345;BME280;3205;42.666;23.264;2023-06-14T08:57:11;94269.19;;;32.57;78.84
6345;BME280;3205;42.666;23.264;2023-06-14T08:59:43;94260.91;;;31.56;87.15
6345;BME280;3205;42.666;23.264;2023-06-14T09:02:13;94259.72;;;32.92;77.50
6345;BME280;3205;42.666;23.264;2023-06-14T09:04:40;94268.91;;;32.26;78.29
6345;BME280;3205;42.666;23.264;2023-06-14T09:07:06;94257.47;;;31.99;86.19
6345;BME280;3205;42.666;23.264;2023-06-14T09:09:38;94257.00;;;32.00;84.65
6345;BME280;3205;42.666;23.264;2023-06-14T09:12:07;94255.75;;;34.18;71.33
6345;BME280;3205;42.666;23.264;2023-06-14T09:14:35;94255.09;;;35.43;63.16
6345;BME280;3205;42.666;23.264;2023-06-14T09:17:04;94249.81;;;34.56;66.82
6345;BME280;3205;42.666;23.264;2023-06-14T09:19:30;94249.81;;;32.60;77.27
6345;BME280;3205;42.666;23.264;2023-06-14T09:21:57;94257.78;;;32.15;83.37
6345;BME280;3205;42.666;23.264;2023-06-14T09:24:24;94243.66;;;31.27;84.80
6345;BME280;3205;42.666;23.264;2023-06-14T09:26:51;94243.28;;;29.63;99.49
6345;BME280;3205;42.666;23.264;2023-06-14T09:29:17;94238.78;;;28.19;100.00
6345;BME280;3205;42.666;23.264;2023-06-14T09:31:47;94246.41;;;28.33;100.00
6345;BME280;3205;42.666;23.264;2023-06-14T09:34:13;94244.00;;;28.14;100.00
6345;BME280;3205;42.666;23.264;2023-06-14T09:36:42;94247.19;;;27.82;100.00
6345;BME280;3205;42.666;23.264;2023-06-14T09:39:09;94245.00;;;27.98;100.00
6345;BME280;3205;42.666;23.264;2023-06-14T09:41:36;94245.31;;;28.00;100.00
6345;BME280;3205;42.666;23.264;2023-06-14T09:44:03;94246.19;;;27.67;100.00
6345;BME280;3205;42.666;23.264;2023-06-14T09:46:30;94239.38;;;26.61;100.00
6345;BME280;3205;42.666;23.264;2023-06-14T09:48:57;94230.16;;;26.34;100.00
6345;BME280;3205;42.666;23.264;2023-06-14T09:51:23;94231.94;;;26.87;100.00
6345;BME280;3205;42.666;23.264;2023-06-14T09:53:50;94228.41;;;27.11;100.00
6345;BME280;3205;42.666;23.264;2023-06-14T09:56:23;94229.00;;;27.70;100.00
6345;BME280;3205;42.666;23.264;2023-06-14T09:58:55;94221.03;;;27.76;100.00
6345;BME280;3205;42.666;23.264;2023-06-14T10:01:21;94229.31;;;28.02;100.00
6345;BME280;3205;42.666;23.264;2023-06-14T10:03:52;94224.53;;;27.85;100.00
6345;BME280;3205;42.666;23.264;2023-06-14T10:06:22;94222.31;;;27.62;100.00
6345;BME280;3205;42.666;23.264;2023-06-14T10:08:50;94217.59;;;27.20;100.00
6345;BME280;3205;42.666;23.264;2023-06-14T10:11:18;94211.44;;;27.19;100.00
6345;BME280;3205;42.666;23.264;2023-06-14T10:13:45;94212.63;;;27.40;100.00
6345;BME280;3205;42.666;23.264;2023-06-14T10:16:17;94206.75;;;27.41;100.00
6345;BME280;3205;42.666;23.264;2023-06-14T10:18:49;94204.78;;;27.42;100.00
6345;BME280;3205;42.666;23.264;2023-06-14T10:21:23;94199.75;;;27.53;100.00
6345;BME280;3205;42.666;23.264;2023-06-14T10:23:56;94197.66;;;27.57;100.00
6345;BME280;3205;42.666;23.264;2023-06-14T10:26:27;94197.25;;;27.15;100.00
6345;BME280;3205;42.666;23.264;2023-06-14T10:28:58;94196.50;;;27.02;100.00
6345;BME280;3205;42.666;23.264;2023-06-14T10:31:43;94198.44;;;27.14;100.00
6345;BME280;3205;42.666;23.264;2023-06-14T10:34:09;94194.91;;;26.93;100.00
6345;BME280;3205;42.666;23.264;2023-06-14T10:36:38;94192.81;;;26.97;100.00
6345;BME280;3205;42.666;23.264;2023-06-14T10:39:07;94189.03;;;26.94;100.00
6345;BME280;3205;42.666;23.264;2023-06-14T10:41:36;94179.44;;;26.81;100.00
6345;BME280;3205;42.666;23.264;2023-06-14T10:44:31;94187.72;;;26.99;100.00
6345;BME280;3205;42.666;23.264;2023-06-14T10:46:59;94185.25;;;26.45;100.00
6345;BME280;3205;42.666;23.264;2023-06-14T10:49:38;94179.88;;;26.21;100.00
6345;BME280;3205;42.666;23.264;2023-06-14T10:52:08;94181.72;;;26.24;100.00
6345;BME280;3205;42.666;23.264;2023-06-14T10:54:37;94175.84;;;26.13;100.00
6345;BME280;3205;42.666;23.264;2023-06-14T10:57:06;94179.19;;;26.54;100.00
6345;BME280;3205;42.666;23.264;2023-06-14T10:59:32;94172.81;;;26.48;100.00
6345;BME280;3205;42.666;23.264;2023-06-14T11:02:12;94160.38;;;26.72;100.00
6345;BME280;3205;42.666;23.264;2023-06-14T11:04:48;94154.56;;;26.82;100.00
6345;BME280;3205;42.666;23.264;2023-06-14T11:07:42;94156.53;;;26.82;100.00
6345;BME280;3205;42.666;23.264;2023-06-14T11:10:19;94163.41;;;26.74;100.00
6345;BME280;3205;42.666;23.264;2023-06-14T11:12:50;94151.16;;;25.73;100.00
6345;BME280;3205;42.666;23.264;2023-06-14T11:15:18;94153.41;;;25.62;100.00
6345;BME280;3205;42.666;23.264;2023-06-14T11:17:50;94156.03;;;25.91;100.00
6345;BME280;3205;42.666;23.264;2023-06-14T11:20:19;94156.25;;;25.84;100.00
6345;BME280;3205;42.666;23.264;2023-06-14T11:22:46;94152.34;;;25.85;100.00
6345;BME280;3205;42.666;23.264;2023-06-14T11:25:13;94150.84;;;25.71;100.00
6345;BME280;3205;42.666;23.264;2023-06-14T11:27:41;94145.88;;;25.82;100.00
6345;BME280;3205;42.666;23.264;2023-06-14T11:30:10;94148.53;;;26.20;100.00
6345;BME280;3205;42.666;23.264;2023-06-14T11:32:36;94150.69;;;26.49;100.00
6345;BME280;3205;42.666;23.264;2023-06-14T11:35:03;94145.59;;;26.39;100.00
6345;BME280;3205;42.666;23.264;2023-06-14T11:37:31;94148.47;;;26.57;100.00
6345;BME280;3205;42.666;23.264;2023-06-14T11:39:58;94143.25;;;26.62;100.00
6345;BME280;3205;42.666;23.264;2023-06-14T11:42:24;94138.56;;;26.97;100.00
6345;BME280;3205;42.666;23.264;2023-06-14T11:44:53;94141.53;;;27.32;100.00
6345;BME280;3205;42.666;23.264;2023-06-14T11:47:20;94149.66;;;26.90;100.00
6345;BME280;3205;42.666;23.264;2023-06-14T11:49:46;94132.06;;;26.73;100.00
6345;BME280;3205;42.666;23.264;2023-06-14T11:52:12;94126.72;;;26.48;100.00
6345;BME280;3205;42.666;23.264;2023-06-14T11:54:39;94124.25;;;26.41;100.00
6345;BME280;3205;42.666;23.264;2023-06-14T11:57:06;94132.44;;;26.50;100.00
6345;BME280;3205;42.666;23.264;2023-06-14T11:59:38;94126.22;;;26.62;100.00
6345;BME280;3205;42.666;23.264;2023-06-14T12:02:05;94115.19;;;26.78;100.00
6345;BME280;3205;42.666;23.264;2023-06-14T12:04:33;94119.50;;;26.88;100.00
6345;BME280;3205;42.666;23.264;2023-06-14T12:07:08;94101.91;;;26.92;100.00
6345;BME280;3205;42.666;23.264;2023-06-14T12:09:37;94103.81;;;27.04;100.00
6345;BME280;3205;42.666;23.264;2023-06-14T12:12:05;94107.41;;;26.80;100.00
6345;BME280;3205;42.666;23.264;2023-06-14T12:14:33;94107.72;;;25.64;100.00
6345;BME280;3205;42.666;23.264;2023-06-14T12:17:04;94098.19;;;25.72;100.00
6345;BME280;3205;42.666;23.264;2023-06-14T12:19:32;94088.34;;;25.78;100.00
6345;BME280;3205;42.666;23.264;2023-06-14T12:21:59;94087.84;;;26.17;100.00
6345;BME280;3205;42.666;23.264;2023-06-14T12:24:28;94091.13;;;26.12;100.00
6345;BME280;3205;42.666;23.264;2023-06-14T12:26:54;94099.03;;;25.94;100.00
6345;BME280;3205;42.666;23.264;2023-06-14T12:29:22;94095.41;;;26.22;100.00
6345;BME280;3205;42.666;23.264;2023-06-14T12:31:49;94102.13;;;26.42;100.00
6345;BME280;3205;42.666;23.264;2023-06-14T12:34:15;94092.72;;;26.56;100.00
6345;BME280;3205;42.666;23.264;2023-06-14T12:36:41;94080.84;;;26.75;100.00
6345;BME280;3205;42.666;23.264;2023-06-14T12:39:10;94086.16;;;27.00;100.00
6345;BME280;3205;42.666;23.264;2023-06-14T12:41:36;94086.78;;;27.03;100.00
6345;BME280;3205;42.666;23.264;2023-06-14T12:44:03;94081.59;;;27.18;100.00
6345;BME280;3205;42.666;23.264;2023-06-14T12:46:30;94077.03;;;27.15;100.00
6345;BME280;3205;42.666;23.264;2023-06-14T12:48:58;94070.09;;;27.14;100.00
6345;BME280;3205;42.666;23.264;2023-06-14T12:51:24;94075.72;;;26.77;100.00
6345;BME280;3205;42.666;23.264;2023-06-14T12:53:50;94064.75;;;26.59;100.00
6345;BME280;3205;42.666;23.264;2023-06-14T12:56:17;94068.03;;;26.75;100.00
6345;BME280;3205;42.666;23.264;2023-06-14T12:58:43;94057.56;;;26.65;100.00
6345;BME280;3205;42.666;23.264;2023-06-14T13:01:10;94065.44;;;26.72;100.00
6345;BME280;3205;42.666;23.264;2023-06-14T13:03:36;94064.69;;;26.93;100.00